Agency, Missouri
Current Conditions -  °F | °C
As of 4:53 AM on Thursday 23 Oct 2014 (Local Time) from KSTJ Reporting Station
Broken Clouds Broken Clouds  
Wind Chill: 14°   Ceiling: 11000
Heat Index: 14°   Visibility: 7mi
Dew Point: 14°   Wind: 0mph
Humidity: 100%   Direction: NA
Pressure: 30.08"   Gusts: NA
Location:  39.64°N, 94.74°W
Report Text: KSTJ 230953Z AUTO 00000KT 7SM FEW055 BKN110 14/14 A3008 RMK AO2 RAE32 SLP181 P0003 T01440144
Loading
Personal Weather Stations






























Interactive Weather Map New forecast layout! Learn more

10-Day Weather Forecast

Advertisements
Track Severe Weather on mobile